Time;durP1;ratioP1;P1;durP2;ratioP2;P2;SDS_P1;SDS_P2;PMS_P1;PMS_P2;Temp;Humidity;BMP_temperature;BMP_pressure;BME280_temperature;BME280_humidity;BME280_pressure;Samples;Min_cycle;Max_cycle;Signal;HPM_P1;HPM_P2
2022/05/29 00:00:24;;;;;;;;;;;10.80;88.00;;;;;;5029829;28;19929;-80
2022/05/29 00:02:53;;;;;;;;;;;10.90;87.90;;;;;;5017363;28;19913;-80
2022/05/29 00:05:20;;;;;;;;;;;10.80;88.00;;;;;;5015566;28;19925;-80
2022/05/29 00:07:49;;;;;;;;;;;10.70;88.10;;;;;;5045619;28;19939;-81
2022/05/29 00:10:17;;;;;;;;;;;11.30;88.60;;;;;;5012702;28;19925;-80
2022/05/29 00:12:46;;;;;;;;;;;10.70;88.00;;;;;;5029016;28;19935;-80
2022/05/29 00:15:15;;;;;;;;;;;10.60;88.50;;;;;;5019541;28;19941;-80
2022/05/29 00:17:43;;;;;;;;;;;10.60;88.50;;;;;;5028341;28;19929;-80
2022/05/29 00:20:11;;;;;;;;;;;10.60;88.90;;;;;;5045476;28;20080;-80
2022/05/29 00:22:39;;;;;;;;;;;10.50;88.80;;;;;;5028415;28;19929;-80
2022/05/29 00:25:09;;;;;;;;;;;10.50;89.30;;;;;;5028201;28;19932;-81
2022/05/29 00:27:36;;;;;;;;;;;10.90;88.80;;;;;;5028999;28;19925;-80
2022/05/29 00:30:06;;;;;;;;;;;10.50;88.90;;;;;;5046939;28;19936;-80
2022/05/29 00:32:34;;;;;;;;;;;10.60;89.30;;;;;;5044683;28;19929;-80
2022/05/29 00:35:02;;;;;;;;;;;10.60;89.40;;;;;;5028094;28;19932;-80
2022/05/29 00:37:33;;;;;;;;;;;10.60;90.00;;;;;;5027518;28;19943;-79
2022/05/29 00:40:02;;;;;;;;;;;9.20;88.20;;;;;;5045828;28;19929;-81
2022/05/29 00:42:29;;;;;;;;;;;10.80;89.30;;;;;;5010677;28;19929;-80
2022/05/29 00:44:57;;;;;;;;;;;10.70;89.10;;;;;;5010853;28;19932;-80
2022/05/29 00:47:27;;;;;;;;;;;10.60;89.20;;;;;;5026630;28;19941;-80
2022/05/29 00:49:55;;;;;;;;;;;10.60;89.00;;;;;;5044331;28;19935;-80
2022/05/29 00:52:25;;;;;;;;;;;10.50;89.70;;;;;;5026364;28;19929;-80
2022/05/29 00:54:55;;;;;;;;;;;10.40;89.40;;;;;;5027555;28;19948;-80
2022/05/29 00:57:26;;;;;;;;;;;10.40;89.60;;;;;;5031921;28;19929;-80
2022/05/29 00:59:56;;;;;;;;;;;9.20;88.80;;;;;;5026311;28;19935;-80
2022/05/29 01:02:25;;;;;;;;;;;10.30;90.40;;;;;;5027551;28;19925;-80
2022/05/29 01:04:53;;;;;;;;;;;10.30;90.40;;;;;;5026012;28;19995;-80
2022/05/29 01:07:24;;;;;;;;;;;10.20;90.00;;;;;;5007042;28;19944;-81
2022/05/29 01:09:53;;;;;;;;;;;10.20;90.20;;;;;;5023152;28;20401;-80
2022/05/29 01:12:40;;;;;;;;;;;10.10;90.50;;;;;;5031685;28;19931;-80
2022/05/29 01:15:15;;;;;;;;;;;10.00;90.20;;;;;;5027157;28;20627;-79
2022/05/29 01:17:58;;;;;;;;;;;10.10;90.40;;;;;;5007124;28;20262;-80
2022/05/29 01:20:41;;;;;;;;;;;10.00;90.30;;;;;;5009592;28;19940;-80
2022/05/29 01:23:24;;;;;;;;;;;10.00;90.40;;;;;;5022807;28;19936;-80
2022/05/29 01:26:02;;;;;;;;;;;10.00;90.50;;;;;;5025152;28;19925;-79
2022/05/29 01:28:44;;;;;;;;;;;10.00;90.60;;;;;;4991221;28;20281;-80
2022/05/29 01:31:18;;;;;;;;;;;9.90;90.70;;;;;;5026239;28;19929;-80
2022/05/29 01:33:55;;;;;;;;;;;9.90;91.10;;;;;;5024655;28;19939;-80
2022/05/29 01:36:23;;;;;;;;;;;10.10;91.20;;;;;;5029462;28;20098;-80
2022/05/29 01:38:56;;;;;;;;;;;9.90;91.00;;;;;;5028475;28;19925;-80
2022/05/29 01:41:33;;;;;;;;;;;9.90;90.90;;;;;;5011333;28;19935;-80
2022/05/29 01:44:06;;;;;;;;;;;9.80;91.10;;;;;;5027298;28;19925;-80
2022/05/29 01:46:34;;;;;;;;;;;9.80;91.20;;;;;;5029828;28;19924;-80
2022/05/29 01:49:21;;;;;;;;;;;9.70;91.60;;;;;;5018187;28;19913;-80
2022/05/29 01:51:58;;;;;;;;;;;9.70;91.60;;;;;;5038524;28;20004;-80
2022/05/29 01:54:32;;;;;;;;;;;9.60;91.70;;;;;;5031114;28;19932;-80
2022/05/29 01:57:08;;;;;;;;;;;9.50;91.60;;;;;;5029926;28;19941;-79
2022/05/29 01:59:44;;;;;;;;;;;9.50;91.90;;;;;;5027068;28;19943;-80
2022/05/29 02:02:14;;;;;;;;;;;9.50;92.10;;;;;;5026594;28;19925;-80
2022/05/29 02:04:46;;;;;;;;;;;9.50;92.40;;;;;;5024239;28;19936;-80
2022/05/29 02:10:16;;;;;;;;;;;9.40;92.40;;;;;;5024021;28;19932;-80
2022/05/29 02:12:48;;;;;;;;;;;9.20;92.50;;;;;;5024233;28;19933;-80
2022/05/29 02:15:19;;;;;;;;;;;9.30;92.80;;;;;;5011312;28;20354;-80
2022/05/29 02:17:52;;;;;;;;;;;9.20;93.20;;;;;;5015206;28;19929;-80
2022/05/29 02:20:19;;;;;;;;;;;9.20;92.90;;;;;;4995862;28;19933;-80
2022/05/29 02:22:50;;;;;;;;;;;9.20;93.30;;;;;;5024230;28;19933;-79
2022/05/29 02:25:19;;;;;;;;;;;9.10;92.80;;;;;;5008692;28;19933;-80
2022/05/29 02:27:53;;;;;;;;;;;9.10;93.60;;;;;;5026270;28;19932;-80
2022/05/29 02:30:29;;;;;;;;;;;9.20;92.80;;;;;;5025935;28;19926;-80
2022/05/29 02:33:11;;;;;;;;;;;9.00;93.00;;;;;;5024446;28;19925;-80
2022/05/29 02:35:39;;;;;;;;;;;9.20;93.30;;;;;;5023404;28;19936;-80
2022/05/29 02:38:12;;;;;;;;;;;9.00;93.30;;;;;;5007576;28;19926;-80
2022/05/29 02:40:41;;;;;;;;;;;9.00;93.30;;;;;;5008907;28;20103;-80
2022/05/29 02:43:14;;;;;;;;;;;9.00;93.30;;;;;;5013560;28;19929;-80
2022/05/29 02:45:50;;;;;;;;;;;9.00;93.30;;;;;;5023302;28;19925;-79
2022/05/29 02:48:21;;;;;;;;;;;8.90;93.40;;;;;;5009151;28;19926;-79
2022/05/29 02:50:58;;;;;;;;;;;8.90;93.60;;;;;;5012131;28;19926;-80
2022/05/29 02:53:26;;;;;;;;;;;8.90;93.40;;;;;;5026520;28;19932;-80
2022/05/29 02:55:56;;;;;;;;;;;8.80;93.60;;;;;;5027372;28;19935;-80
2022/05/29 02:58:27;;;;;;;;;;;8.80;94.00;;;;;;4993190;28;20508;-80
2022/05/29 03:01:10;;;;;;;;;;;8.80;93.80;;;;;;5008736;28;20019;-79
2022/05/29 03:03:57;;;;;;;;;;;8.80;94.00;;;;;;5025439;28;19932;-80
2022/05/29 03:06:37;;;;;;;;;;;8.80;94.20;;;;;;5027875;28;19936;-79
2022/05/29 03:09:15;;;;;;;;;;;8.70;94.80;;;;;;5044825;28;19931;-79
2022/05/29 03:11:45;;;;;;;;;;;8.70;94.60;;;;;;5024248;28;19926;-80
2022/05/29 03:14:19;;;;;;;;;;;8.70;94.80;;;;;;5024012;28;20351;-80
2022/05/29 03:16:47;;;;;;;;;;;8.60;94.60;;;;;;4991716;28;19926;-79
2022/05/29 03:19:33;;;;;;;;;;;8.70;94.70;;;;;;5042615;28;20323;-80
2022/05/29 03:22:11;;;;;;;;;;;8.70;94.40;;;;;;5002332;28;19925;-80
2022/05/29 03:24:45;;;;;;;;;;;8.60;94.80;;;;;;5028909;28;19929;-80
2022/05/29 03:27:12;;;;;;;;;;;8.60;94.90;;;;;;5012085;28;19932;-80
2022/05/29 03:29:50;;;;;;;;;;;9.50;95.30;;;;;;5010894;28;19925;-80
2022/05/29 03:32:19;;;;;;;;;;;8.60;94.90;;;;;;5026031;28;19925;-80
2022/05/29 03:34:48;;;;;;;;;;;8.60;95.30;;;;;;5029102;28;19910;-80
2022/05/29 03:37:16;;;;;;;;;;;8.60;95.20;;;;;;5046140;28;19931;-80
2022/05/29 03:39:44;;;;;;;;;;;8.60;95.20;;;;;;5043994;28;19933;-80
2022/05/29 03:42:12;;;;;;;;;;;8.60;95.10;;;;;;5026445;28;19933;-80
2022/05/29 03:44:41;;;;;;;;;;;8.60;95.40;;;;;;5027319;28;19929;-80
2022/05/29 03:47:08;;;;;;;;;;;8.50;95.10;;;;;;4994927;28;19925;-80
2022/05/29 03:49:36;;;;;;;;;;;8.60;95.50;;;;;;5023610;28;19925;-80
2022/05/29 03:52:05;;;;;;;;;;;8.50;95.40;;;;;;5039851;28;19944;-80
2022/05/29 03:54:33;;;;;;;;;;;8.50;95.50;;;;;;5047306;28;19925;-79
2022/05/29 03:57:02;;;;;;;;;;;8.30;95.90;;;;;;5029689;28;19926;-80
2022/05/29 03:59:30;;;;;;;;;;;8.50;95.50;;;;;;5013409;28;19932;-80
2022/05/29 04:01:58;;;;;;;;;;;8.50;95.60;;;;;;5039885;28;20512;-80
2022/05/29 04:04:26;;;;;;;;;;;8.50;95.80;;;;;;5025568;28;19926;-80
2022/05/29 04:06:55;;;;;;;;;;;8.30;95.70;;;;;;5026445;28;20593;-80
2022/05/29 04:12:13;;;;;;;;;;;8.50;96.10;;;;;;5027757;28;20440;-79
2022/05/29 04:14:43;;;;;;;;;;;8.40;95.90;;;;;;5025835;28;19940;-80
2022/05/29 04:17:12;;;;;;;;;;;8.40;96.30;;;;;;5011985;28;19932;-79
2022/05/29 04:19:41;;;;;;;;;;;8.50;96.30;;;;;;5011171;28;19925;-80
2022/05/29 04:22:10;;;;;;;;;;;8.40;96.40;;;;;;5027604;28;19926;-80
2022/05/29 04:24:38;;;;;;;;;;;8.40;96.30;;;;;;5026145;28;19926;-80
2022/05/29 04:27:11;;;;;;;;;;;8.40;96.30;;;;;;5010691;28;19935;-80
2022/05/29 04:29:39;;;;;;;;;;;8.50;96.70;;;;;;5030003;28;19932;-80
2022/05/29 04:34:57;;;;;;;;;;;8.50;96.50;;;;;;5025921;28;19934;-80
2022/05/29 04:37:27;;;;;;;;;;;8.60;96.50;;;;;;5009937;28;19926;-79
2022/05/29 04:39:55;;;;;;;;;;;8.60;96.70;;;;;;5025190;28;19944;-80
2022/05/29 04:42:23;;;;;;;;;;;8.60;97.10;;;;;;5008357;28;19932;-80
2022/05/29 04:44:51;;;;;;;;;;;9.20;96.90;;;;;;5025212;28;19932;-79
2022/05/29 04:47:19;;;;;;;;;;;8.80;96.60;;;;;;5025316;28;19940;-81
2022/05/29 04:49:48;;;;;;;;;;;8.70;96.40;;;;;;5023736;28;19926;-79
2022/05/29 04:52:18;;;;;;;;;;;8.80;96.60;;;;;;5013642;28;19948;-80
2022/05/29 04:54:47;;;;;;;;;;;8.80;96.40;;;;;;5019453;28;19940;-82
2022/05/29 04:57:18;;;;;;;;;;;9.10;96.70;;;;;;5003900;28;19940;-80
2022/05/29 04:59:48;;;;;;;;;;;8.90;96.30;;;;;;5019443;28;19926;-81
2022/05/29 05:02:16;;;;;;;;;;;9.00;96.30;;;;;;5021629;28;19937;-81
2022/05/29 05:04:45;;;;;;;;;;;9.00;96.70;;;;;;5022180;28;19929;-80
2022/05/29 05:07:12;;;;;;;;;;;9.00;96.30;;;;;;5016036;28;19930;-80
2022/05/29 05:09:41;;;;;;;;;;;9.10;96.50;;;;;;5005162;28;19937;-81
2022/05/29 05:12:15;;;;;;;;;;;9.10;96.50;;;;;;4987616;28;19941;-80
2022/05/29 05:14:44;;;;;;;;;;;9.10;96.50;;;;;;4986910;28;19934;-80
2022/05/29 05:17:12;;;;;;;;;;;9.20;96.40;;;;;;5006145;28;19926;-80
2022/05/29 05:19:39;;;;;;;;;;;9.20;96.30;;;;;;5024054;28;19929;-80
2022/05/29 05:22:08;;;;;;;;;;;9.30;96.00;;;;;;5025203;28;19930;-80
2022/05/29 05:24:37;;;;;;;;;;;9.30;96.00;;;;;;5023843;28;19936;-80
2022/05/29 05:27:07;;;;;;;;;;;9.40;96.10;;;;;;5006878;28;19929;-80
2022/05/29 05:29:43;;;;;;;;;;;9.40;96.10;;;;;;5026012;28;19926;-80
2022/05/29 05:32:13;;;;;;;;;;;9.40;96.10;;;;;;5006889;28;19926;-80
2022/05/29 05:34:41;;;;;;;;;;;9.90;96.40;;;;;;5028335;28;19936;-80
2022/05/29 05:37:10;;;;;;;;;;;9.60;96.40;;;;;;5023196;28;19935;-80
2022/05/29 05:39:38;;;;;;;;;;;9.60;96.00;;;;;;5023262;28;19937;-80
2022/05/29 05:42:06;;;;;;;;;;;9.60;96.10;;;;;;5017603;28;19934;-80
2022/05/29 05:44:33;;;;;;;;;;;9.70;95.70;;;;;;5003910;28;19930;-80
2022/05/29 05:47:01;;;;;;;;;;;9.70;96.00;;;;;;5002288;28;19925;-80
2022/05/29 05:49:30;;;;;;;;;;;9.80;95.80;;;;;;5022277;28;19936;-80
2022/05/29 05:51:59;;;;;;;;;;;9.90;95.70;;;;;;5024160;28;19929;-80
2022/05/29 05:54:31;;;;;;;;;;;9.90;95.60;;;;;;5006252;28;19929;-80
2022/05/29 05:57:05;;;;;;;;;;;10.00;95.50;;;;;;5023069;28;19925;-80
2022/05/29 05:59:34;;;;;;;;;;;10.10;95.20;;;;;;5022678;28;20443;-80
2022/05/29 06:02:02;;;;;;;;;;;10.10;95.20;;;;;;5021481;28;19936;-80
2022/05/29 06:04:29;;;;;;;;;;;10.20;95.30;;;;;;5004552;28;20452;-80
2022/05/29 06:06:57;;;;;;;;;;;10.20;95.20;;;;;;5005531;28;20024;-80
2022/05/29 06:09:27;;;;;;;;;;;10.30;94.90;;;;;;5022897;28;19925;-81
2022/05/29 06:12:00;;;;;;;;;;;10.30;94.90;;;;;;5020417;28;20080;-80
2022/05/29 06:14:27;;;;;;;;;;;10.40;94.70;;;;;;5006671;28;19945;-80
2022/05/29 06:17:01;;;;;;;;;;;10.40;94.90;;;;;;5007351;28;19933;-80
2022/05/29 06:19:42;;;;;;;;;;;10.50;94.60;;;;;;5018300;28;19925;-80
2022/05/29 06:22:10;;;;;;;;;;;10.60;94.90;;;;;;5021732;28;19948;-80
2022/05/29 06:24:37;;;;;;;;;;;10.60;94.40;;;;;;5022830;28;19929;-80
2022/05/29 06:27:05;;;;;;;;;;;10.70;94.40;;;;;;5021732;28;19933;-80
2022/05/29 06:29:33;;;;;;;;;;;10.70;94.30;;;;;;5021684;28;20291;-80
2022/05/29 06:32:03;;;;;;;;;;;10.80;94.20;;;;;;5017316;28;19926;-80
2022/05/29 06:34:32;;;;;;;;;;;10.80;94.10;;;;;;5023225;28;19925;-81
2022/05/29 06:37:06;;;;;;;;;;;10.90;94.00;;;;;;5024513;28;19941;-80
2022/05/29 06:39:37;;;;;;;;;;;10.90;93.80;;;;;;5023948;28;19944;-80
2022/05/29 06:42:09;;;;;;;;;;;10.90;93.90;;;;;;5023889;28;19925;-80
2022/05/29 06:44:40;;;;;;;;;;;13.10;94.20;;;;;;5010773;28;20385;-80
2022/05/29 06:47:10;;;;;;;;;;;11.20;93.60;;;;;;5025149;28;19925;-81
2022/05/29 06:49:41;;;;;;;;;;;11.00;93.50;;;;;;5024312;28;19930;-80
2022/05/29 06:52:11;;;;;;;;;;;11.10;93.30;;;;;;5025834;28;19936;-81
2022/05/29 06:54:44;;;;;;;;;;;11.40;93.70;;;;;;5005999;28;19935;-80
2022/05/29 06:57:13;;;;;;;;;;;11.10;93.80;;;;;;5021359;28;19925;-80
2022/05/29 07:08:01;;;;;;;;;;;11.30;93.30;;;;;;5027423;28;19936;-81
2022/05/29 07:10:30;;;;;;;;;;;11.40;93.40;;;;;;5021082;28;19932;-80
2022/05/29 07:12:59;;;;;;;;;;;11.50;93.20;;;;;;5021960;28;19937;-80
2022/05/29 07:15:27;;;;;;;;;;;11.50;93.30;;;;;;5027195;28;20081;-80
2022/05/29 07:18:01;;;;;;;;;;;11.60;93.10;;;;;;5027788;28;19925;-80
2022/05/29 07:20:35;;;;;;;;;;;11.70;93.00;;;;;;5025622;28;19926;-80
2022/05/29 07:23:03;;;;;;;;;;;11.80;93.10;;;;;;5022706;28;19926;-81
2022/05/29 07:25:36;;;;;;;;;;;11.90;93.30;;;;;;5007532;28;19926;-80
2022/05/29 07:28:05;;;;;;;;;;;12.00;93.10;;;;;;5022606;28;19926;-81
2022/05/29 07:30:35;;;;;;;;;;;12.10;93.20;;;;;;5004492;28;19930;-80
2022/05/29 07:33:06;;;;;;;;;;;12.30;92.90;;;;;;5003557;28;20429;-80
2022/05/29 07:35:35;;;;;;;;;;;12.50;92.80;;;;;;5026467;28;19930;-80
2022/05/29 07:38:04;;;;;;;;;;;12.60;92.80;;;;;;5025796;28;19926;-80
2022/05/29 07:40:32;;;;;;;;;;;12.00;91.90;;;;;;5009421;28;19925;-81
2022/05/29 07:43:18;;;;;;;;;;;12.20;91.60;;;;;;5025610;28;20314;-80
2022/05/29 07:46:08;;;;;;;;;;;12.70;92.00;;;;;;5026519;28;20421;-80
2022/05/29 07:48:37;;;;;;;;;;;12.70;92.00;;;;;;5025559;28;20032;-80
2022/05/29 07:51:12;;;;;;;;;;;12.70;92.20;;;;;;5009591;28;19936;-81
2022/05/29 07:53:45;;;;;;;;;;;13.00;92.20;;;;;;5026516;28;19933;-81
2022/05/29 07:56:20;;;;;;;;;;;11.60;92.00;;;;;;5028767;28;19926;-80
2022/05/29 07:58:48;;;;;;;;;;;12.80;91.90;;;;;;5031361;28;19929;-81
2022/05/29 08:01:24;;;;;;;;;;;12.90;91.80;;;;;;5026519;28;19936;-81
2022/05/29 08:03:59;;;;;;;;;;;12.90;91.60;;;;;;5015666;28;19929;-80
2022/05/29 08:06:27;;;;;;;;;;;13.50;91.80;;;;;;5012376;28;19932;-80
2022/05/29 08:08:55;;;;;;;;;;;14.50;92.70;;;;;;5029284;28;19935;-80
2022/05/29 08:11:24;;;;;;;;;;;13.40;91.90;;;;;;5023619;28;19929;-81
2022/05/29 08:13:54;;;;;;;;;;;14.10;92.20;;;;;;5045838;28;19928;-80
2022/05/29 08:16:22;;;;;;;;;;;13.30;91.40;;;;;;4674787;28;9999719;-80
2022/05/29 08:19:03;;;;;;;;;;;13.30;91.40;;;;;;5043943;28;19944;-82
2022/05/29 08:21:32;;;;;;;;;;;13.50;91.30;;;;;;5018139;28;19933;-80
2022/05/29 08:32:57;;;;;;;;;;;14.10;90.50;;;;;;5031215;28;19925;-81
2022/05/29 08:35:25;;;;;;;;;;;14.20;90.90;;;;;;5044194;28;19932;-80
2022/05/29 08:37:53;;;;;;;;;;;14.20;90.10;;;;;;5005914;28;19925;-80
2022/05/29 08:40:21;;;;;;;;;;;14.10;90.00;;;;;;5021473;28;19955;-80
2022/05/29 08:42:56;;;;;;;;;;;14.10;89.10;;;;;;5038704;28;19936;-80
2022/05/29 08:45:27;;;;;;;;;;;14.10;89.60;;;;;;5032738;28;19932;-80
2022/05/29 08:47:57;;;;;;;;;;;14.00;89.10;;;;;;5017240;28;19929;-80
2022/05/29 08:50:58;;;;;;;;;;;14.00;89.30;;;;;;5028611;28;19939;-81
2022/05/29 08:53:26;;;;;;;;;;;14.60;90.00;;;;;;4992590;28;20127;-80
2022/05/29 08:56:04;;;;;;;;;;;14.00;89.60;;;;;;5041130;28;19934;-80
2022/05/29 08:58:42;;;;;;;;;;;14.20;89.00;;;;;;5021771;28;19933;-81
2022/05/29 09:01:24;;;;;;;;;;;14.60;89.30;;;;;;5039194;28;19936;-81
2022/05/29 09:04:00;;;;;;;;;;;15.10;89.70;;;;;;5021025;28;19932;-81
2022/05/29 09:06:37;;;;;;;;;;;14.20;88.30;;;;;;5018088;28;19924;-80
2022/05/29 09:09:20;;;;;;;;;;;12.50;87.80;;;;;;5041085;28;19936;-81
2022/05/29 09:11:58;;;;;;;;;;;14.20;88.60;;;;;;5019339;28;20275;-80
2022/05/29 09:14:39;;;;;;;;;;;14.20;89.00;;;;;;5042276;28;19936;-80
2022/05/29 09:17:35;;;;;;;;;;;14.20;88.30;;;;;;5043202;28;19933;-80
2022/05/29 09:20:10;;;;;;;;;;;14.20;89.10;;;;;;5022100;28;19929;-81
2022/05/29 09:22:39;;;;;;;;;;;15.30;89.10;;;;;;5043176;28;19939;-80
2022/05/29 09:25:17;;;;;;;;;;;14.80;87.20;;;;;;5022219;28;20188;-80
2022/05/29 09:27:47;;;;;;;;;;;14.80;86.30;;;;;;5002150;28;19943;-81
2022/05/29 09:30:19;;;;;;;;;;;15.00;86.30;;;;;;5039105;28;20274;-81
2022/05/29 09:32:49;;;;;;;;;;;15.20;85.80;;;;;;5004169;28;19939;-80
2022/05/29 09:35:24;;;;;;;;;;;15.20;83.80;;;;;;5040698;28;20302;-81
2022/05/29 09:37:55;;;;;;;;;;;15.20;83.40;;;;;;5039374;28;19925;-81
2022/05/29 09:40:27;;;;;;;;;;;15.10;83.80;;;;;;5022067;28;20274;-80
2022/05/29 09:42:55;;;;;;;;;;;15.00;83.80;;;;;;5042369;28;19939;-81
2022/05/29 09:45:27;;;;;;;;;;;15.00;84.40;;;;;;5028375;28;19933;-81
2022/05/29 09:50:51;;;;;;;;;;;15.10;83.70;;;;;;5021788;28;19925;-81
2022/05/29 09:53:24;;;;;;;;;;;15.30;82.20;;;;;;5022255;28;20201;-81
2022/05/29 09:55:55;;;;;;;;;;;15.20;83.10;;;;;;5037892;28;19929;-81
2022/05/29 09:58:26;;;;;;;;;;;15.30;83.40;;;;;;5023607;28;20225;-81
2022/05/29 10:00:56;;;;;;;;;;;15.40;82.70;;;;;;5023182;28;19944;-81
2022/05/29 10:03:33;;;;;;;;;;;13.90;82.00;;;;;;5003873;28;19925;-81
2022/05/29 10:06:14;;;;;;;;;;;15.40;82.40;;;;;;5005618;28;20004;-80
2022/05/29 10:08:44;;;;;;;;;;;15.30;81.80;;;;;;5019627;28;20009;-81
2022/05/29 10:11:12;;;;;;;;;;;15.40;80.30;;;;;;5019514;28;19951;-81
2022/05/29 10:13:42;;;;;;;;;;;15.40;80.90;;;;;;5039382;28;19933;-81
2022/05/29 10:16:10;;;;;;;;;;;15.50;81.30;;;;;;5007374;28;19939;-81
2022/05/29 10:18:41;;;;;;;;;;;15.50;80.70;;;;;;5020391;28;19929;-81
2022/05/29 10:21:21;;;;;;;;;;;15.50;80.10;;;;;;5024533;28;19943;-81
2022/05/29 10:23:51;;;;;;;;;;;15.60;80.70;;;;;;5020317;28;19929;-83
2022/05/29 10:26:32;;;;;;;;;;;15.20;80.00;;;;;;5004315;28;19925;-81
2022/05/29 10:29:19;;;;;;;;;;;16.10;80.40;;;;;;5019575;28;19933;-80
2022/05/29 10:31:49;;;;;;;;;;;16.30;79.80;;;;;;5018620;28;21193;-81
2022/05/29 10:34:23;;;;;;;;;;;16.60;80.10;;;;;;5020241;28;19929;-82
2022/05/29 10:36:51;;;;;;;;;;;16.70;79.10;;;;;;5039001;28;20603;-81
2022/05/29 10:39:21;;;;;;;;;;;16.70;79.10;;;;;;5005083;28;19925;-81
2022/05/29 10:41:50;;;;;;;;;;;16.70;79.30;;;;;;5037170;28;19945;-81
2022/05/29 10:44:57;;;;;;;;;;;16.60;79.50;;;;;;5020589;28;19932;-81
2022/05/29 10:47:27;;;;;;;;;;;16.80;78.80;;;;;;4955360;28;19934;-80
2022/05/29 10:49:58;;;;;;;;;;;15.30;77.10;;;;;;4951858;28;19941;-80
2022/05/29 10:52:52;;;;;;;;;;;17.10;76.50;;;;;;4997987;28;20535;-80
2022/05/29 10:55:33;;;;;;;;;;;16.20;75.00;;;;;;5008461;28;19937;-81
2022/05/29 10:58:10;;;;;;;;;;;17.20;76.30;;;;;;5025361;28;19944;-80
2022/05/29 11:00:54;;;;;;;;;;;17.40;76.40;;;;;;5009204;28;19936;-81
2022/05/29 11:03:26;;;;;;;;;;;17.60;75.90;;;;;;5037321;28;19936;-80
2022/05/29 11:06:01;;;;;;;;;;;17.60;76.20;;;;;;5000002;28;19925;-81
2022/05/29 11:08:53;;;;;;;;;;;17.50;75.70;;;;;;5017685;28;19925;-81
2022/05/29 11:11:32;;;;;;;;;;;17.70;74.80;;;;;;4981337;28;19929;-83
2022/05/29 11:14:11;;;;;;;;;;;17.50;75.30;;;;;;5016051;28;19930;-80
2022/05/29 11:17:11;;;;;;;;;;;19.50;76.40;;;;;;5019889;28;19940;-80
2022/05/29 11:20:09;;;;;;;;;;;17.70;75.50;;;;;;5026068;28;19933;-81
2022/05/29 11:23:09;;;;;;;;;;;17.00;74.60;;;;;;5020849;28;19921;-81
2022/05/29 11:26:01;;;;;;;;;;;17.40;75.30;;;;;;4991853;28;20135;-81
2022/05/29 11:28:38;;;;;;;;;;;17.30;75.80;;;;;;5013478;28;19913;-80
2022/05/29 11:31:42;;;;;;;;;;;17.70;76.60;;;;;;5027236;28;20370;-79
2022/05/29 11:34:37;;;;;;;;;;;17.80;75.20;;;;;;5018430;28;19929;-81
2022/05/29 11:37:32;;;;;;;;;;;18.30;74.70;;;;;;4990960;28;19944;-80
2022/05/29 11:40:21;;;;;;;;;;;18.20;74.80;;;;;;4986815;28;19930;-81
2022/05/29 11:43:20;;;;;;;;;;;18.20;74.10;;;;;;5018784;28;19929;-81
2022/05/29 11:52:19;;;;;;;;;;;18.00;73.40;;;;;;5024840;28;19929;-81
2022/05/29 11:54:50;;;;;;;;;;;18.00;74.00;;;;;;5020597;28;19926;-81
2022/05/29 11:57:31;;;;;;;;;;;18.10;74.10;;;;;;5020754;28;19929;-81
2022/05/29 12:00:00;;;;;;;;;;;18.00;75.10;;;;;;5020809;28;19925;-82
2022/05/29 12:02:32;;;;;;;;;;;18.10;74.40;;;;;;5002666;28;19933;-81
2022/05/29 12:05:19;;;;;;;;;;;17.50;74.30;;;;;;5021832;28;19934;-81
2022/05/29 12:08:10;;;;;;;;;;;18.00;75.00;;;;;;5002143;28;19933;-81
2022/05/29 12:11:32;;;;;;;;;;;18.00;74.80;;;;;;4980266;28;19936;-83
2022/05/29 12:14:23;;;;;;;;;;;17.80;75.10;;;;;;5010601;28;19945;-83
2022/05/29 12:17:18;;;;;;;;;;;17.80;74.90;;;;;;5006473;28;19934;-81
2022/05/29 12:20:09;;;;;;;;;;;17.60;75.70;;;;;;5018009;28;19933;-83
2022/05/29 12:22:41;;;;;;;;;;;17.60;75.80;;;;;;4997446;28;19934;-82
2022/05/29 12:25:30;;;;;;;;;;;17.70;76.10;;;;;;5023251;28;20409;-83
2022/05/29 12:28:15;;;;;;;;;;;17.50;76.30;;;;;;4988614;28;19936;-83
2022/05/29 12:30:55;;;;;;;;;;;19.50;77.50;;;;;;5005420;28;19940;-82
2022/05/29 12:33:38;;;;;;;;;;;16.40;76.20;;;;;;4999597;28;20350;-83
2022/05/29 12:37:30;;;;;;;;;;;16.70;75.20;;;;;;4945406;28;19931;-81
2022/05/29 12:40:17;;;;;;;;;;;18.60;73.60;;;;;;4945212;28;20087;-82
2022/05/29 12:43:10;;;;;;;;;;;;;;;;;;;;;
2022/05/29 12:46:23;;;;;;;;;;;18.80;72.30;;;;;;4947638;28;20348;-82
2022/05/29 12:48:57;;;;;;;;;;;18.90;71.30;;;;;;4951348;28;19956;-81
2022/05/29 12:51:55;;;;;;;;;;;19.60;71.40;;;;;;5002810;28;19925;-82
2022/05/29 12:54:30;;;;;;;;;;;19.60;71.10;;;;;;5036608;28;19940;-83
2022/05/29 12:57:17;;;;;;;;;;;19.50;71.30;;;;;;5021826;28;19928;-82
2022/05/29 12:59:50;;;;;;;;;;;19.40;71.40;;;;;;5020770;28;19932;-82
2022/05/29 13:02:22;;;;;;;;;;;19.40;71.00;;;;;;5001870;28;19954;-81
2022/05/29 13:05:09;;;;;;;;;;;19.00;72.10;;;;;;5017202;28;19926;-82
2022/05/29 13:07:47;;;;;;;;;;;18.10;72.20;;;;;;5000144;28;19939;-83
2022/05/29 13:10:17;;;;;;;;;;;18.60;73.40;;;;;;5017425;28;19937;-82
2022/05/29 13:13:06;;;;;;;;;;;18.60;73.90;;;;;;5016136;28;19936;-81
2022/05/29 13:15:35;;;;;;;;;;;18.60;74.60;;;;;;4654876;28;10000274;-81
2022/05/29 13:18:12;;;;;;;;;;;18.50;74.20;;;;;;5022806;28;19939;-82
2022/05/29 13:21:00;;;;;;;;;;;18.40;74.10;;;;;;5006225;28;20324;-81
2022/05/29 13:23:32;;;;;;;;;;;18.10;75.30;;;;;;5034014;28;19926;-81
2022/05/29 13:26:00;;;;;;;;;;;17.80;76.50;;;;;;5034596;28;19929;-81
2022/05/29 13:28:31;;;;;;;;;;;17.70;77.50;;;;;;5002644;28;19936;-82
2022/05/29 13:31:07;;;;;;;;;;;18.10;78.00;;;;;;5020811;28;19932;-81
2022/05/29 13:33:53;;;;;;;;;;;17.50;77.80;;;;;;5010879;28;19925;-82
2022/05/29 13:36:47;;;;;;;;;;;18.70;79.00;;;;;;4982968;28;19941;-81
2022/05/29 13:39:40;;;;;;;;;;;17.50;78.50;;;;;;5033361;28;19940;-83
2022/05/29 13:42:31;;;;;;;;;;;17.60;78.50;;;;;;5006951;28;19933;-81
2022/05/29 13:45:00;;;;;;;;;;;17.70;77.50;;;;;;4980463;28;20071;-90
2022/05/29 13:47:36;;;;;;;;;;;17.50;76.90;;;;;;4973007;28;19929;-89
2022/05/29 13:50:10;;;;;;;;;;;17.40;77.10;;;;;;4976515;28;19929;-90
2022/05/29 13:53:00;;;;;;;;;;;17.50;77.30;;;;;;4997130;28;19933;-89
2022/05/29 13:55:33;;;;;;;;;;;17.50;76.40;;;;;;4992408;28;19926;-88
2022/05/29 14:03:58;;;;;;;;;;;16.70;76.40;;;;;;4992683;28;19941;-89
2022/05/29 14:07:07;;;;;;;;;;;17.60;76.90;;;;;;4986852;28;19925;-89
2022/05/29 14:09:37;;;;;;;;;;;17.60;77.00;;;;;;4964228;28;20820;-90
2022/05/29 14:12:12;;;;;;;;;;;17.60;77.10;;;;;;4975033;28;19929;-89
2022/05/29 14:14:43;;;;;;;;;;;17.50;76.60;;;;;;4977343;28;19960;-89
2022/05/29 14:17:14;;;;;;;;;;;17.30;77.10;;;;;;4989235;28;20321;-89
2022/05/29 14:19:54;;;;;;;;;;;17.10;77.80;;;;;;4986337;28;19934;-89
2022/05/29 14:22:46;;;;;;;;;;;16.90;78.40;;;;;;4982514;28;19933;-90
2022/05/29 14:25:32;;;;;;;;;;;16.60;78.30;;;;;;5005106;28;19934;-90
2022/05/29 14:28:04;;;;;;;;;;;16.40;78.70;;;;;;4986289;28;19941;-90
2022/05/29 14:30:55;;;;;;;;;;;16.40;79.40;;;;;;4969030;28;19937;-88
2022/05/29 14:33:29;;;;;;;;;;;16.40;79.60;;;;;;4978859;28;19929;-88
2022/05/29 14:36:06;;;;;;;;;;;16.40;79.40;;;;;;4991436;28;19933;-88
2022/05/29 14:38:57;;;;;;;;;;;16.30;79.50;;;;;;4989408;28;19925;-91
2022/05/29 14:41:33;;;;;;;;;;;15.90;79.30;;;;;;4946149;28;19929;-90
2022/05/29 14:44:10;;;;;;;;;;;16.70;79.20;;;;;;4985478;28;19926;-89
2022/05/29 14:49:20;;;;;;;;;;;17.50;78.60;;;;;;4982891;28;19932;-89
2022/05/29 14:51:53;;;;;;;;;;;18.00;77.50;;;;;;4966129;28;19933;-90
2022/05/29 14:54:35;;;;;;;;;;;18.40;76.80;;;;;;4994091;28;19930;-89
2022/05/29 14:57:21;;;;;;;;;;;18.70;76.10;;;;;;4997750;28;19926;-89
2022/05/29 14:59:51;;;;;;;;;;;19.20;75.80;;;;;;4978975;28;19941;-88
2022/05/29 15:02:22;;;;;;;;;;;19.60;74.40;;;;;;4975152;28;19933;-92
2022/05/29 15:04:51;;;;;;;;;;;20.10;75.20;;;;;;4976572;28;19941;-91
2022/05/29 15:10:31;;;;;;;;;;;20.70;75.40;;;;;;4996087;28;19940;-90
2022/05/29 15:13:05;;;;;;;;;;;20.80;73.80;;;;;;4959952;28;19922;-91
2022/05/29 15:15:38;;;;;;;;;;;20.70;74.20;;;;;;4993047;28;19930;-90
2022/05/29 15:18:13;;;;;;;;;;;20.60;74.70;;;;;;4974652;28;19944;-89
2022/05/29 15:26:21;;;;;;;;;;;20.10;76.10;;;;;;4981104;28;19929;-88
2022/05/29 15:28:51;;;;;;;;;;;20.10;74.30;;;;;;4992702;28;19941;-91
2022/05/29 15:31:24;;;;;;;;;;;19.90;76.30;;;;;;4993313;28;20044;-89
2022/05/29 15:34:03;;;;;;;;;;;20.40;77.30;;;;;;4993065;28;19930;-88
2022/05/29 15:36:49;;;;;;;;;;;19.10;77.60;;;;;;4994621;28;19941;-88
2022/05/29 15:39:26;;;;;;;;;;;18.70;79.10;;;;;;5003850;28;20423;-89
2022/05/29 15:42:19;;;;;;;;;;;18.30;80.00;;;;;;4975416;28;19929;-89
2022/05/29 15:44:55;;;;;;;;;;;18.10;80.20;;;;;;5009620;28;19948;-89
2022/05/29 15:47:29;;;;;;;;;;;17.70;80.80;;;;;;4977557;28;19945;-90
2022/05/29 15:50:11;;;;;;;;;;;17.40;82.90;;;;;;4996410;28;20340;-90
2022/05/29 15:52:51;;;;;;;;;;;17.20;82.70;;;;;;4977964;28;19933;-88
2022/05/29 15:55:44;;;;;;;;;;;17.00;82.60;;;;;;4991377;28;20265;-88
2022/05/29 15:58:24;;;;;;;;;;;16.70;83.30;;;;;;5005726;28;19933;-89